sensor_id;sensor_type;location;lat;lon;timestamp;P1;durP1;ratioP1;P2;durP2;ratioP2
11197;SDS011;5655;48.744;9.162;2023-04-30T00:01:53;8.43;;;6.05;;
11197;SDS011;5655;48.744;9.162;2023-04-30T00:04:18;8.30;;;6.18;;
11197;SDS011;5655;48.744;9.162;2023-04-30T00:06:44;8.35;;;5.88;;
11197;SDS011;5655;48.744;9.162;2023-04-30T00:09:09;8.88;;;5.97;;
11197;SDS011;5655;48.744;9.162;2023-04-30T00:11:34;7.45;;;6.45;;
11197;SDS011;5655;48.744;9.162;2023-04-30T00:14:00;9.38;;;6.50;;
11197;SDS011;5655;48.744;9.162;2023-04-30T00:16:25;8.05;;;6.57;;
11197;SDS011;5655;48.744;9.162;2023-04-30T00:18:50;8.77;;;6.38;;
11197;SDS011;5655;48.744;9.162;2023-04-30T00:21:16;7.47;;;6.20;;
11197;SDS011;5655;48.744;9.162;2023-04-30T00:23:41;7.07;;;5.72;;
11197;SDS011;5655;48.744;9.162;2023-04-30T00:26:06;9.90;;;6.07;;
11197;SDS011;5655;48.744;9.162;2023-04-30T00:28:32;8.10;;;6.00;;
11197;SDS011;5655;48.744;9.162;2023-04-30T00:30:57;7.80;;;6.72;;
11197;SDS011;5655;48.744;9.162;2023-04-30T00:33:22;8.75;;;6.15;;
11197;SDS011;5655;48.744;9.162;2023-04-30T00:35:47;9.75;;;6.40;;
11197;SDS011;5655;48.744;9.162;2023-04-30T00:38:13;7.15;;;6.13;;
11197;SDS011;5655;48.744;9.162;2023-04-30T00:40:39;9.93;;;6.30;;
11197;SDS011;5655;48.744;9.162;2023-04-30T00:43:05;8.18;;;5.95;;
11197;SDS011;5655;48.744;9.162;2023-04-30T00:45:30;7.97;;;6.20;;
11197;SDS011;5655;48.744;9.162;2023-04-30T00:47:56;8.07;;;6.25;;
11197;SDS011;5655;48.744;9.162;2023-04-30T00:50:21;10.30;;;7.32;;
11197;SDS011;5655;48.744;9.162;2023-04-30T00:52:47;10.30;;;5.93;;
11197;SDS011;5655;48.744;9.162;2023-04-30T00:55:13;10.68;;;6.65;;
11197;SDS011;5655;48.744;9.162;2023-04-30T00:57:38;8.95;;;7.18;;
11197;SDS011;5655;48.744;9.162;2023-04-30T01:00:07;10.90;;;6.13;;
11197;SDS011;5655;48.744;9.162;2023-04-30T01:02:37;8.85;;;6.32;;
11197;SDS011;5655;48.744;9.162;2023-04-30T01:05:03;8.00;;;6.40;;
11197;SDS011;5655;48.744;9.162;2023-04-30T01:07:29;8.35;;;6.50;;
11197;SDS011;5655;48.744;9.162;2023-04-30T01:09:55;8.38;;;6.70;;
11197;SDS011;5655;48.744;9.162;2023-04-30T01:18:10;9.30;;;6.53;;
11197;SDS011;5655;48.744;9.162;2023-04-30T01:20:53;9.98;;;6.68;;
11197;SDS011;5655;48.744;9.162;2023-04-30T01:26:12;10.20;;;7.00;;
11197;SDS011;5655;48.744;9.162;2023-04-30T01:28:45;11.27;;;7.28;;
11197;SDS011;5655;48.744;9.162;2023-04-30T01:31:13;9.55;;;6.40;;
11197;SDS011;5655;48.744;9.162;2023-04-30T01:33:40;9.13;;;6.95;;
11197;SDS011;5655;48.744;9.162;2023-04-30T01:52:52;10.77;;;7.40;;
11197;SDS011;5655;48.744;9.162;2023-04-30T01:58:08;10.05;;;7.82;;
11197;SDS011;5655;48.744;9.162;2023-04-30T02:00:36;11.13;;;7.78;;
11197;SDS011;5655;48.744;9.162;2023-04-30T02:03:01;11.50;;;8.68;;
11197;SDS011;5655;48.744;9.162;2023-04-30T02:05:27;11.82;;;8.45;;
11197;SDS011;5655;48.744;9.162;2023-04-30T02:07:53;11.88;;;8.32;;
11197;SDS011;5655;48.744;9.162;2023-04-30T02:10:20;12.18;;;8.52;;
11197;SDS011;5655;48.744;9.162;2023-04-30T02:12:47;13.52;;;9.25;;
11197;SDS011;5655;48.744;9.162;2023-04-30T02:15:12;14.10;;;9.48;;
11197;SDS011;5655;48.744;9.162;2023-04-30T02:17:37;12.02;;;9.55;;
11197;SDS011;5655;48.744;9.162;2023-04-30T02:20:03;12.57;;;9.38;;
11197;SDS011;5655;48.744;9.162;2023-04-30T02:22:29;13.48;;;9.48;;
11197;SDS011;5655;48.744;9.162;2023-04-30T02:24:54;13.82;;;9.63;;
11197;SDS011;5655;48.744;9.162;2023-04-30T02:27:21;15.23;;;9.85;;
11197;SDS011;5655;48.744;9.162;2023-04-30T02:29:47;16.25;;;9.90;;
11197;SDS011;5655;48.744;9.162;2023-04-30T02:32:13;14.32;;;9.35;;
11197;SDS011;5655;48.744;9.162;2023-04-30T02:34:38;13.80;;;9.88;;
11197;SDS011;5655;48.744;9.162;2023-04-30T02:37:04;15.80;;;10.15;;
11197;SDS011;5655;48.744;9.162;2023-04-30T02:39:29;14.98;;;10.18;;
11197;SDS011;5655;48.744;9.162;2023-04-30T02:41:55;18.30;;;11.05;;
11197;SDS011;5655;48.744;9.162;2023-04-30T02:44:20;14.45;;;10.50;;
11197;SDS011;5655;48.744;9.162;2023-04-30T02:46:45;13.27;;;9.57;;
11197;SDS011;5655;48.744;9.162;2023-04-30T02:49:11;15.63;;;10.85;;
11197;SDS011;5655;48.744;9.162;2023-04-30T02:51:36;14.93;;;10.60;;
11197;SDS011;5655;48.744;9.162;2023-04-30T02:54:01;16.52;;;10.55;;
11197;SDS011;5655;48.744;9.162;2023-04-30T02:56:26;14.07;;;10.02;;
11197;SDS011;5655;48.744;9.162;2023-04-30T02:58:52;14.43;;;10.57;;
11197;SDS011;5655;48.744;9.162;2023-04-30T03:01:17;15.13;;;10.90;;
11197;SDS011;5655;48.744;9.162;2023-04-30T03:03:43;19.67;;;11.43;;
11197;SDS011;5655;48.744;9.162;2023-04-30T03:06:08;16.33;;;10.68;;
11197;SDS011;5655;48.744;9.162;2023-04-30T03:08:33;17.17;;;10.77;;
11197;SDS011;5655;48.744;9.162;2023-04-30T03:10:59;16.70;;;11.15;;
11197;SDS011;5655;48.744;9.162;2023-04-30T03:13:24;15.95;;;11.43;;
11197;SDS011;5655;48.744;9.162;2023-04-30T03:15:55;14.98;;;10.48;;
11197;SDS011;5655;48.744;9.162;2023-04-30T03:18:22;16.20;;;11.02;;
11197;SDS011;5655;48.744;9.162;2023-04-30T03:20:47;16.75;;;11.02;;
11197;SDS011;5655;48.744;9.162;2023-04-30T03:23:12;17.05;;;11.30;;
11197;SDS011;5655;48.744;9.162;2023-04-30T03:25:37;13.45;;;10.57;;
11197;SDS011;5655;48.744;9.162;2023-04-30T03:28:03;14.85;;;10.40;;
11197;SDS011;5655;48.744;9.162;2023-04-30T03:30:28;14.23;;;10.50;;
11197;SDS011;5655;48.744;9.162;2023-04-30T03:32:54;14.25;;;10.02;;
11197;SDS011;5655;48.744;9.162;2023-04-30T03:35:19;16.23;;;11.52;;
11197;SDS011;5655;48.744;9.162;2023-04-30T03:37:44;15.10;;;10.50;;
11197;SDS011;5655;48.744;9.162;2023-04-30T03:40:09;14.98;;;10.70;;
11197;SDS011;5655;48.744;9.162;2023-04-30T03:42:35;15.98;;;10.82;;
11197;SDS011;5655;48.744;9.162;2023-04-30T03:45:00;15.93;;;11.10;;
11197;SDS011;5655;48.744;9.162;2023-04-30T03:47:26;13.32;;;10.18;;
11197;SDS011;5655;48.744;9.162;2023-04-30T03:49:51;14.43;;;10.77;;
11197;SDS011;5655;48.744;9.162;2023-04-30T03:52:19;14.73;;;10.30;;
11197;SDS011;5655;48.744;9.162;2023-04-30T03:54:46;12.90;;;10.23;;
11197;SDS011;5655;48.744;9.162;2023-04-30T03:57:11;12.60;;;9.60;;
11197;SDS011;5655;48.744;9.162;2023-04-30T03:59:37;16.52;;;10.35;;
11197;SDS011;5655;48.744;9.162;2023-04-30T04:02:04;14.02;;;10.02;;
11197;SDS011;5655;48.744;9.162;2023-04-30T04:04:30;13.55;;;9.75;;
11197;SDS011;5655;48.744;9.162;2023-04-30T04:06:55;16.52;;;10.98;;
11197;SDS011;5655;48.744;9.162;2023-04-30T04:09:21;14.75;;;9.80;;
11197;SDS011;5655;48.744;9.162;2023-04-30T04:11:46;14.25;;;10.63;;
11197;SDS011;5655;48.744;9.162;2023-04-30T04:14:11;17.88;;;10.38;;
11197;SDS011;5655;48.744;9.162;2023-04-30T04:16:37;14.38;;;9.85;;
11197;SDS011;5655;48.744;9.162;2023-04-30T04:19:02;14.52;;;9.90;;
11197;SDS011;5655;48.744;9.162;2023-04-30T04:21:28;12.13;;;8.82;;
11197;SDS011;5655;48.744;9.162;2023-04-30T04:23:53;14.45;;;9.90;;
11197;SDS011;5655;48.744;9.162;2023-04-30T04:26:19;13.90;;;9.73;;
11197;SDS011;5655;48.744;9.162;2023-04-30T04:28:45;14.63;;;10.20;;
11197;SDS011;5655;48.744;9.162;2023-04-30T04:31:12;13.07;;;9.73;;
11197;SDS011;5655;48.744;9.162;2023-04-30T04:33:37;15.35;;;10.70;;
11197;SDS011;5655;48.744;9.162;2023-04-30T04:36:02;13.02;;;9.30;;
11197;SDS011;5655;48.744;9.162;2023-04-30T04:38:28;11.93;;;9.13;;
11197;SDS011;5655;48.744;9.162;2023-04-30T04:40:53;13.70;;;10.15;;
11197;SDS011;5655;48.744;9.162;2023-04-30T04:43:19;13.40;;;10.38;;
11197;SDS011;5655;48.744;9.162;2023-04-30T04:45:45;14.82;;;10.00;;
11197;SDS011;5655;48.744;9.162;2023-04-30T04:48:11;12.82;;;9.98;;
11197;SDS011;5655;48.744;9.162;2023-04-30T04:50:37;13.27;;;9.32;;
11197;SDS011;5655;48.744;9.162;2023-04-30T04:53:02;12.07;;;9.80;;
11197;SDS011;5655;48.744;9.162;2023-04-30T04:55:28;15.07;;;10.25;;
11197;SDS011;5655;48.744;9.162;2023-04-30T04:57:53;13.98;;;9.73;;
11197;SDS011;5655;48.744;9.162;2023-04-30T05:00:18;12.38;;;9.60;;
11197;SDS011;5655;48.744;9.162;2023-04-30T05:02:46;11.85;;;9.48;;
11197;SDS011;5655;48.744;9.162;2023-04-30T05:05:11;12.38;;;9.57;;
11197;SDS011;5655;48.744;9.162;2023-04-30T05:07:37;13.18;;;9.57;;
11197;SDS011;5655;48.744;9.162;2023-04-30T05:10:02;14.40;;;11.00;;
11197;SDS011;5655;48.744;9.162;2023-04-30T05:12:27;14.32;;;9.90;;
11197;SDS011;5655;48.744;9.162;2023-04-30T05:14:52;13.18;;;9.90;;
11197;SDS011;5655;48.744;9.162;2023-04-30T05:17:18;14.57;;;9.57;;
11197;SDS011;5655;48.744;9.162;2023-04-30T05:19:43;17.35;;;10.80;;
11197;SDS011;5655;48.744;9.162;2023-04-30T05:22:11;15.77;;;10.10;;
11197;SDS011;5655;48.744;9.162;2023-04-30T05:24:36;16.20;;;11.40;;
11197;SDS011;5655;48.744;9.162;2023-04-30T05:27:02;15.15;;;9.95;;
11197;SDS011;5655;48.744;9.162;2023-04-30T05:29:29;13.15;;;10.25;;
11197;SDS011;5655;48.744;9.162;2023-04-30T05:31:54;14.35;;;9.85;;
11197;SDS011;5655;48.744;9.162;2023-04-30T05:34:19;14.18;;;10.68;;
11197;SDS011;5655;48.744;9.162;2023-04-30T05:36:45;14.43;;;10.68;;
11197;SDS011;5655;48.744;9.162;2023-04-30T05:39:10;16.17;;;10.02;;
11197;SDS011;5655;48.744;9.162;2023-04-30T05:41:36;14.32;;;10.30;;
11197;SDS011;5655;48.744;9.162;2023-04-30T05:44:01;12.73;;;9.70;;
11197;SDS011;5655;48.744;9.162;2023-04-30T05:46:28;15.32;;;10.63;;
11197;SDS011;5655;48.744;9.162;2023-04-30T05:48:54;14.60;;;10.52;;
11197;SDS011;5655;48.744;9.162;2023-04-30T05:51:19;14.40;;;10.10;;
11197;SDS011;5655;48.744;9.162;2023-04-30T05:53:45;12.95;;;9.88;;
11197;SDS011;5655;48.744;9.162;2023-04-30T05:56:10;13.05;;;9.07;;
11197;SDS011;5655;48.744;9.162;2023-04-30T05:58:36;11.45;;;8.82;;
11197;SDS011;5655;48.744;9.162;2023-04-30T06:01:02;13.43;;;10.02;;
11197;SDS011;5655;48.744;9.162;2023-04-30T06:03:28;12.35;;;9.98;;
11197;SDS011;5655;48.744;9.162;2023-04-30T06:05:53;12.75;;;9.50;;
11197;SDS011;5655;48.744;9.162;2023-04-30T06:08:19;13.40;;;10.00;;
11197;SDS011;5655;48.744;9.162;2023-04-30T06:10:44;14.40;;;9.63;;
11197;SDS011;5655;48.744;9.162;2023-04-30T06:13:10;12.18;;;9.63;;
11197;SDS011;5655;48.744;9.162;2023-04-30T06:15:35;12.35;;;9.27;;
11197;SDS011;5655;48.744;9.162;2023-04-30T06:18:01;14.60;;;9.25;;
11197;SDS011;5655;48.744;9.162;2023-04-30T06:20:27;12.38;;;9.18;;
11197;SDS011;5655;48.744;9.162;2023-04-30T06:22:52;12.80;;;9.07;;
11197;SDS011;5655;48.744;9.162;2023-04-30T06:25:18;11.02;;;8.98;;
11197;SDS011;5655;48.744;9.162;2023-04-30T06:27:44;11.57;;;9.00;;
11197;SDS011;5655;48.744;9.162;2023-04-30T06:30:10;12.73;;;9.45;;
11197;SDS011;5655;48.744;9.162;2023-04-30T06:32:36;13.00;;;9.18;;
11197;SDS011;5655;48.744;9.162;2023-04-30T06:35:01;12.07;;;9.13;;
11197;SDS011;5655;48.744;9.162;2023-04-30T06:37:26;12.18;;;9.15;;
11197;SDS011;5655;48.744;9.162;2023-04-30T06:39:52;12.57;;;9.45;;
11197;SDS011;5655;48.744;9.162;2023-04-30T06:42:17;10.05;;;8.23;;
11197;SDS011;5655;48.744;9.162;2023-04-30T06:44:42;12.07;;;9.60;;
11197;SDS011;5655;48.744;9.162;2023-04-30T06:47:08;12.30;;;9.23;;
11197;SDS011;5655;48.744;9.162;2023-04-30T06:49:33;12.35;;;9.15;;
11197;SDS011;5655;48.744;9.162;2023-04-30T06:51:58;12.75;;;8.57;;
11197;SDS011;5655;48.744;9.162;2023-04-30T06:54:24;14.02;;;8.98;;
11197;SDS011;5655;48.744;9.162;2023-04-30T06:56:50;12.70;;;8.80;;
11197;SDS011;5655;48.744;9.162;2023-04-30T06:59:16;13.07;;;8.68;;
11197;SDS011;5655;48.744;9.162;2023-04-30T07:01:41;11.60;;;8.38;;
11197;SDS011;5655;48.744;9.162;2023-04-30T07:04:07;14.00;;;8.45;;
11197;SDS011;5655;48.744;9.162;2023-04-30T07:06:32;11.30;;;8.48;;
11197;SDS011;5655;48.744;9.162;2023-04-30T07:08:58;10.27;;;8.07;;
11197;SDS011;5655;48.744;9.162;2023-04-30T07:11:23;11.15;;;8.68;;
11197;SDS011;5655;48.744;9.162;2023-04-30T07:13:48;10.63;;;8.00;;
11197;SDS011;5655;48.744;9.162;2023-04-30T07:16:14;9.88;;;8.20;;
11197;SDS011;5655;48.744;9.162;2023-04-30T07:18:41;10.32;;;8.10;;
11197;SDS011;5655;48.744;9.162;2023-04-30T07:21:06;9.93;;;7.57;;
11197;SDS011;5655;48.744;9.162;2023-04-30T07:23:32;8.18;;;6.80;;
11197;SDS011;5655;48.744;9.162;2023-04-30T07:25:58;8.73;;;7.10;;
11197;SDS011;5655;48.744;9.162;2023-04-30T07:28:24;9.40;;;7.95;;
11197;SDS011;5655;48.744;9.162;2023-04-30T07:30:49;9.95;;;7.97;;
11197;SDS011;5655;48.744;9.162;2023-04-30T07:33:15;9.43;;;7.32;;
11197;SDS011;5655;48.744;9.162;2023-04-30T07:35:40;9.07;;;6.95;;
11197;SDS011;5655;48.744;9.162;2023-04-30T07:38:06;9.07;;;7.05;;
11197;SDS011;5655;48.744;9.162;2023-04-30T07:40:31;8.00;;;6.97;;
11197;SDS011;5655;48.744;9.162;2023-04-30T07:42:56;8.40;;;7.03;;
11197;SDS011;5655;48.744;9.162;2023-04-30T07:45:22;7.50;;;6.70;;
11197;SDS011;5655;48.744;9.162;2023-04-30T07:47:47;7.70;;;6.75;;
11197;SDS011;5655;48.744;9.162;2023-04-30T07:50:12;7.00;;;6.28;;
11197;SDS011;5655;48.744;9.162;2023-04-30T07:52:39;7.90;;;6.43;;
11197;SDS011;5655;48.744;9.162;2023-04-30T07:55:05;7.72;;;6.07;;
11197;SDS011;5655;48.744;9.162;2023-04-30T07:57:30;8.27;;;6.05;;
11197;SDS011;5655;48.744;9.162;2023-04-30T07:59:56;8.82;;;6.60;;
11197;SDS011;5655;48.744;9.162;2023-04-30T08:02:21;7.15;;;5.85;;
11197;SDS011;5655;48.744;9.162;2023-04-30T08:04:47;9.82;;;6.90;;
11197;SDS011;5655;48.744;9.162;2023-04-30T08:07:12;7.95;;;6.45;;
11197;SDS011;5655;48.744;9.162;2023-04-30T08:09:40;7.80;;;6.22;;
11197;SDS011;5655;48.744;9.162;2023-04-30T08:12:05;10.38;;;6.53;;
11197;SDS011;5655;48.744;9.162;2023-04-30T08:14:32;7.50;;;5.75;;
11197;SDS011;5655;48.744;9.162;2023-04-30T08:16:57;7.25;;;5.72;;
11197;SDS011;5655;48.744;9.162;2023-04-30T08:19:24;6.25;;;5.65;;
11197;SDS011;5655;48.744;9.162;2023-04-30T08:21:50;10.48;;;5.93;;
11197;SDS011;5655;48.744;9.162;2023-04-30T08:24:15;6.47;;;5.68;;
11197;SDS011;5655;48.744;9.162;2023-04-30T08:26:40;7.40;;;5.70;;
11197;SDS011;5655;48.744;9.162;2023-04-30T08:29:06;6.53;;;5.22;;
11197;SDS011;5655;48.744;9.162;2023-04-30T08:31:32;7.13;;;5.50;;
11197;SDS011;5655;48.744;9.162;2023-04-30T08:33:58;5.55;;;4.85;;
11197;SDS011;5655;48.744;9.162;2023-04-30T08:36:23;5.05;;;4.55;;
11197;SDS011;5655;48.744;9.162;2023-04-30T08:38:48;6.10;;;4.72;;
11197;SDS011;5655;48.744;9.162;2023-04-30T08:41:14;4.70;;;4.00;;
11197;SDS011;5655;48.744;9.162;2023-04-30T08:43:40;5.90;;;4.15;;
11197;SDS011;5655;48.744;9.162;2023-04-30T08:46:06;6.13;;;4.50;;
11197;SDS011;5655;48.744;9.162;2023-04-30T08:48:32;6.28;;;4.30;;
11197;SDS011;5655;48.744;9.162;2023-04-30T08:50:58;5.82;;;3.85;;
11197;SDS011;5655;48.744;9.162;2023-04-30T08:53:28;5.07;;;4.22;;
11197;SDS011;5655;48.744;9.162;2023-04-30T08:55:55;5.53;;;3.90;;
11197;SDS011;5655;48.744;9.162;2023-04-30T08:58:21;5.25;;;3.35;;
11197;SDS011;5655;48.744;9.162;2023-04-30T09:00:47;3.75;;;3.30;;
11197;SDS011;5655;48.744;9.162;2023-04-30T09:03:12;4.05;;;3.58;;
11197;SDS011;5655;48.744;9.162;2023-04-30T09:05:37;3.78;;;3.15;;
11197;SDS011;5655;48.744;9.162;2023-04-30T09:08:03;4.03;;;3.42;;
11197;SDS011;5655;48.744;9.162;2023-04-30T09:10:30;4.43;;;3.30;;
11197;SDS011;5655;48.744;9.162;2023-04-30T09:12:57;7.05;;;3.20;;
11197;SDS011;5655;48.744;9.162;2023-04-30T09:15:25;4.25;;;3.60;;
11197;SDS011;5655;48.744;9.162;2023-04-30T09:18:04;3.90;;;3.42;;
11197;SDS011;5655;48.744;9.162;2023-04-30T09:20:57;4.47;;;3.78;;
11197;SDS011;5655;48.744;9.162;2023-04-30T09:23:27;3.88;;;3.40;;
11197;SDS011;5655;48.744;9.162;2023-04-30T09:25:54;4.57;;;3.53;;
11197;SDS011;5655;48.744;9.162;2023-04-30T09:28:21;4.32;;;3.40;;
11197;SDS011;5655;48.744;9.162;2023-04-30T09:30:50;5.38;;;3.95;;
11197;SDS011;5655;48.744;9.162;2023-04-30T09:33:16;3.45;;;3.05;;
11197;SDS011;5655;48.744;9.162;2023-04-30T09:35:42;3.92;;;3.28;;
11197;SDS011;5655;48.744;9.162;2023-04-30T09:38:23;4.25;;;3.55;;
11197;SDS011;5655;48.744;9.162;2023-04-30T09:40:51;3.50;;;2.90;;
11197;SDS011;5655;48.744;9.162;2023-04-30T09:43:16;4.82;;;2.78;;
11197;SDS011;5655;48.744;9.162;2023-04-30T09:45:42;4.45;;;2.97;;
11197;SDS011;5655;48.744;9.162;2023-04-30T09:48:08;3.40;;;3.10;;
11197;SDS011;5655;48.744;9.162;2023-04-30T09:50:38;4.28;;;2.75;;
11197;SDS011;5655;48.744;9.162;2023-04-30T09:53:07;4.18;;;2.88;;
11197;SDS011;5655;48.744;9.162;2023-04-30T09:55:34;4.28;;;2.80;;
11197;SDS011;5655;48.744;9.162;2023-04-30T09:58:02;3.15;;;2.85;;
11197;SDS011;5655;48.744;9.162;2023-04-30T10:00:31;5.30;;;3.35;;
11197;SDS011;5655;48.744;9.162;2023-04-30T10:02:58;5.55;;;2.70;;
11197;SDS011;5655;48.744;9.162;2023-04-30T10:05:29;3.30;;;3.00;;
11197;SDS011;5655;48.744;9.162;2023-04-30T10:07:56;4.43;;;3.00;;
11197;SDS011;5655;48.744;9.162;2023-04-30T10:10:22;3.92;;;2.58;;
11197;SDS011;5655;48.744;9.162;2023-04-30T10:12:50;4.57;;;2.92;;
11197;SDS011;5655;48.744;9.162;2023-04-30T10:15:24;3.53;;;2.78;;
11197;SDS011;5655;48.744;9.162;2023-04-30T10:18:04;4.20;;;2.80;;
11197;SDS011;5655;48.744;9.162;2023-04-30T10:20:34;2.53;;;2.33;;
11197;SDS011;5655;48.744;9.162;2023-04-30T10:23:03;2.75;;;2.50;;
11197;SDS011;5655;48.744;9.162;2023-04-30T10:25:29;3.83;;;2.75;;
11197;SDS011;5655;48.744;9.162;2023-04-30T10:27:56;2.58;;;2.38;;
11197;SDS011;5655;48.744;9.162;2023-04-30T10:30:22;2.75;;;2.55;;
11197;SDS011;5655;48.744;9.162;2023-04-30T10:36:02;3.35;;;2.55;;
11197;SDS011;5655;48.744;9.162;2023-04-30T10:38:31;2.72;;;2.50;;
11197;SDS011;5655;48.744;9.162;2023-04-30T10:40:58;3.38;;;2.78;;
11197;SDS011;5655;48.744;9.162;2023-04-30T10:43:25;2.38;;;2.17;;
11197;SDS011;5655;48.744;9.162;2023-04-30T10:45:51;3.42;;;2.70;;
11197;SDS011;5655;48.744;9.162;2023-04-30T10:48:18;4.40;;;2.95;;
11197;SDS011;5655;48.744;9.162;2023-04-30T10:50:51;2.78;;;2.58;;
11197;SDS011;5655;48.744;9.162;2023-04-30T10:53:19;3.40;;;2.80;;
11197;SDS011;5655;48.744;9.162;2023-04-30T10:55:52;3.95;;;2.78;;
11197;SDS011;5655;48.744;9.162;2023-04-30T11:01:10;3.88;;;2.83;;
11197;SDS011;5655;48.744;9.162;2023-04-30T11:03:39;5.85;;;2.95;;
11197;SDS011;5655;48.744;9.162;2023-04-30T11:06:06;3.67;;;3.03;;
11197;SDS011;5655;48.744;9.162;2023-04-30T11:08:35;3.20;;;2.90;;
11197;SDS011;5655;48.744;9.162;2023-04-30T11:11:01;3.58;;;2.97;;
11197;SDS011;5655;48.744;9.162;2023-04-30T11:13:37;4.28;;;3.42;;
11197;SDS011;5655;48.744;9.162;2023-04-30T11:16:03;4.05;;;3.45;;
11197;SDS011;5655;48.744;9.162;2023-04-30T11:18:29;5.30;;;3.10;;
11197;SDS011;5655;48.744;9.162;2023-04-30T11:20:55;4.22;;;3.47;;
11197;SDS011;5655;48.744;9.162;2023-04-30T11:23:21;5.13;;;3.78;;
11197;SDS011;5655;48.744;9.162;2023-04-30T11:25:48;6.45;;;3.40;;
11197;SDS011;5655;48.744;9.162;2023-04-30T11:28:19;3.10;;;2.80;;
11197;SDS011;5655;48.744;9.162;2023-04-30T11:30:50;3.80;;;3.13;;
11197;SDS011;5655;48.744;9.162;2023-04-30T11:33:16;4.47;;;3.30;;
11197;SDS011;5655;48.744;9.162;2023-04-30T11:35:42;5.72;;;3.08;;
11197;SDS011;5655;48.744;9.162;2023-04-30T11:38:08;4.13;;;2.80;;
11197;SDS011;5655;48.744;9.162;2023-04-30T11:40:36;5.70;;;3.33;;
11197;SDS011;5655;48.744;9.162;2023-04-30T11:43:02;3.05;;;2.75;;
11197;SDS011;5655;48.744;9.162;2023-04-30T11:45:28;3.72;;;3.05;;
11197;SDS011;5655;48.744;9.162;2023-04-30T11:47:54;3.10;;;2.80;;
11197;SDS011;5655;48.744;9.162;2023-04-30T11:50:21;3.33;;;3.03;;
11197;SDS011;5655;48.744;9.162;2023-04-30T11:52:53;3.30;;;2.70;;
11197;SDS011;5655;48.744;9.162;2023-04-30T11:55:20;3.75;;;2.55;;
11197;SDS011;5655;48.744;9.162;2023-04-30T11:57:48;3.53;;;2.63;;
11197;SDS011;5655;48.744;9.162;2023-04-30T12:00:16;3.30;;;2.92;;
11197;SDS011;5655;48.744;9.162;2023-04-30T12:02:43;3.20;;;2.38;;
11197;SDS011;5655;48.744;9.162;2023-04-30T12:05:17;6.00;;;2.45;;
11197;SDS011;5655;48.744;9.162;2023-04-30T12:10:12;3.38;;;2.45;;
11197;SDS011;5655;48.744;9.162;2023-04-30T12:12:38;3.08;;;2.78;;
11197;SDS011;5655;48.744;9.162;2023-04-30T12:15:11;2.72;;;2.42;;
11197;SDS011;5655;48.744;9.162;2023-04-30T12:17:37;4.72;;;2.63;;
11197;SDS011;5655;48.744;9.162;2023-04-30T12:20:02;2.67;;;2.47;;
11197;SDS011;5655;48.744;9.162;2023-04-30T12:22:29;3.90;;;2.53;;
11197;SDS011;5655;48.744;9.162;2023-04-30T12:24:54;3.42;;;2.83;;
11197;SDS011;5655;48.744;9.162;2023-04-30T12:27:20;2.88;;;2.58;;
11197;SDS011;5655;48.744;9.162;2023-04-30T12:29:46;4.88;;;2.70;;
11197;SDS011;5655;48.744;9.162;2023-04-30T12:32:13;3.40;;;2.60;;
11197;SDS011;5655;48.744;9.162;2023-04-30T12:34:42;3.97;;;2.90;;
11197;SDS011;5655;48.744;9.162;2023-04-30T12:37:08;3.28;;;2.63;;
11197;SDS011;5655;48.744;9.162;2023-04-30T12:39:33;3.95;;;2.85;;
11197;SDS011;5655;48.744;9.162;2023-04-30T12:42:00;5.70;;;2.85;;
11197;SDS011;5655;48.744;9.162;2023-04-30T12:44:26;3.15;;;2.70;;
11197;SDS011;5655;48.744;9.162;2023-04-30T12:46:53;3.60;;;2.50;;
11197;SDS011;5655;48.744;9.162;2023-04-30T12:49:32;2.95;;;2.58;;
11197;SDS011;5655;48.744;9.162;2023-04-30T12:52:08;3.70;;;2.80;;
11197;SDS011;5655;48.744;9.162;2023-04-30T12:54:35;6.15;;;3.08;;
11197;SDS011;5655;48.744;9.162;2023-04-30T12:59:29;2.97;;;2.65;;
11197;SDS011;5655;48.744;9.162;2023-04-30T13:02:03;3.58;;;2.92;;
11197;SDS011;5655;48.744;9.162;2023-04-30T13:04:33;4.00;;;2.80;;
11197;SDS011;5655;48.744;9.162;2023-04-30T13:06:59;3.92;;;2.80;;
11197;SDS011;5655;48.744;9.162;2023-04-30T13:09:25;3.92;;;2.75;;
11197;SDS011;5655;48.744;9.162;2023-04-30T13:11:50;3.17;;;2.88;;
11197;SDS011;5655;48.744;9.162;2023-04-30T13:14:16;3.58;;;2.70;;
11197;SDS011;5655;48.744;9.162;2023-04-30T13:16:42;3.67;;;2.70;;
11197;SDS011;5655;48.744;9.162;2023-04-30T13:19:08;3.25;;;2.78;;
11197;SDS011;5655;48.744;9.162;2023-04-30T13:21:33;3.42;;;2.55;;
11197;SDS011;5655;48.744;9.162;2023-04-30T13:23:58;4.03;;;3.10;;
11197;SDS011;5655;48.744;9.162;2023-04-30T13:26:24;4.03;;;3.00;;
11197;SDS011;5655;48.744;9.162;2023-04-30T13:28:50;4.05;;;2.97;;
11197;SDS011;5655;48.744;9.162;2023-04-30T13:31:15;3.63;;;2.95;;
11197;SDS011;5655;48.744;9.162;2023-04-30T13:33:41;4.95;;;2.95;;
11197;SDS011;5655;48.744;9.162;2023-04-30T13:36:06;4.90;;;2.80;;
11197;SDS011;5655;48.744;9.162;2023-04-30T13:38:31;3.00;;;2.70;;
11197;SDS011;5655;48.744;9.162;2023-04-30T13:40:57;3.72;;;2.92;;
11197;SDS011;5655;48.744;9.162;2023-04-30T13:43:22;3.65;;;2.53;;
11197;SDS011;5655;48.744;9.162;2023-04-30T13:45:48;4.70;;;2.83;;
11197;SDS011;5655;48.744;9.162;2023-04-30T13:48:13;3.50;;;2.58;;
11197;SDS011;5655;48.744;9.162;2023-04-30T13:50:38;3.10;;;2.78;;
11197;SDS011;5655;48.744;9.162;2023-04-30T13:53:04;4.22;;;2.53;;
11197;SDS011;5655;48.744;9.162;2023-04-30T13:55:29;5.85;;;2.60;;
11197;SDS011;5655;48.744;9.162;2023-04-30T13:57:55;2.90;;;2.67;;
11197;SDS011;5655;48.744;9.162;2023-04-30T14:00:21;2.88;;;2.50;;
11197;SDS011;5655;48.744;9.162;2023-04-30T14:02:46;3.00;;;2.70;;
11197;SDS011;5655;48.744;9.162;2023-04-30T14:05:11;3.28;;;2.70;;
11197;SDS011;5655;48.744;9.162;2023-04-30T14:07:37;2.88;;;2.50;;
11197;SDS011;5655;48.744;9.162;2023-04-30T14:10:02;3.70;;;2.67;;
11197;SDS011;5655;48.744;9.162;2023-04-30T14:12:28;3.35;;;2.40;;
11197;SDS011;5655;48.744;9.162;2023-04-30T14:14:54;3.50;;;2.58;;
11197;SDS011;5655;48.744;9.162;2023-04-30T14:17:21;2.55;;;2.15;;
11197;SDS011;5655;48.744;9.162;2023-04-30T14:19:46;3.25;;;2.25;;
11197;SDS011;5655;48.744;9.162;2023-04-30T14:22:11;3.92;;;2.22;;
11197;SDS011;5655;48.744;9.162;2023-04-30T14:24:37;2.72;;;2.30;;
11197;SDS011;5655;48.744;9.162;2023-04-30T14:27:02;3.05;;;2.40;;
11197;SDS011;5655;48.744;9.162;2023-04-30T14:29:28;2.95;;;2.75;;
11197;SDS011;5655;48.744;9.162;2023-04-30T14:31:53;4.45;;;2.22;;
11197;SDS011;5655;48.744;9.162;2023-04-30T14:34:19;4.03;;;2.90;;
11197;SDS011;5655;48.744;9.162;2023-04-30T14:36:44;3.78;;;2.80;;
11197;SDS011;5655;48.744;9.162;2023-04-30T14:39:09;3.03;;;2.40;;
11197;SDS011;5655;48.744;9.162;2023-04-30T14:41:35;3.28;;;2.55;;
11197;SDS011;5655;48.744;9.162;2023-04-30T14:44:00;3.00;;;2.70;;
11197;SDS011;5655;48.744;9.162;2023-04-30T14:46:26;2.72;;;2.50;;
11197;SDS011;5655;48.744;9.162;2023-04-30T14:48:51;3.33;;;2.20;;
11197;SDS011;5655;48.744;9.162;2023-04-30T14:51:18;3.38;;;2.00;;
11197;SDS011;5655;48.744;9.162;2023-04-30T14:53:43;3.88;;;3.05;;
11197;SDS011;5655;48.744;9.162;2023-04-30T14:56:08;5.20;;;2.78;;
11197;SDS011;5655;48.744;9.162;2023-04-30T14:58:34;4.22;;;2.65;;
11197;SDS011;5655;48.744;9.162;2023-04-30T15:00:59;2.90;;;2.50;;
11197;SDS011;5655;48.744;9.162;2023-04-30T15:03:25;3.75;;;2.97;;
11197;SDS011;5655;48.744;9.162;2023-04-30T15:05:50;4.43;;;2.67;;
11197;SDS011;5655;48.744;9.162;2023-04-30T15:08:16;3.25;;;2.83;;
11197;SDS011;5655;48.744;9.162;2023-04-30T15:10:41;2.63;;;2.30;;
11197;SDS011;5655;48.744;9.162;2023-04-30T15:13:07;2.65;;;2.45;;
11197;SDS011;5655;48.744;9.162;2023-04-30T15:15:32;3.05;;;2.63;;
11197;SDS011;5655;48.744;9.162;2023-04-30T15:17:57;2.63;;;2.35;;
11197;SDS011;5655;48.744;9.162;2023-04-30T15:20:24;3.08;;;2.72;;
11197;SDS011;5655;48.744;9.162;2023-04-30T15:22:49;2.65;;;2.38;;
11197;SDS011;5655;48.744;9.162;2023-04-30T15:25:15;3.72;;;2.60;;
11197;SDS011;5655;48.744;9.162;2023-04-30T15:27:42;2.83;;;2.53;;